createdAt,value
2019-05-21T00:00:39.738Z,992.40
2019-05-21T00:01:39.661Z,992.39
2019-05-21T00:02:39.666Z,992.35
2019-05-21T00:03:39.693Z,992.34
2019-05-21T00:04:39.747Z,992.37
2019-05-21T00:05:39.612Z,992.36
2019-05-21T00:06:39.602Z,992.43
2019-05-21T00:07:39.572Z,992.42
2019-05-21T00:08:39.582Z,992.50
2019-05-21T00:09:39.572Z,992.33
2019-05-21T00:10:39.565Z,992.34
2019-05-21T00:11:39.552Z,992.35
2019-05-21T00:12:39.522Z,992.39
2019-05-21T00:13:39.532Z,992.42
2019-05-21T00:14:39.519Z,992.40
2019-05-21T00:15:39.625Z,992.43
2019-05-21T00:16:39.503Z,992.40
2019-05-21T00:17:39.483Z,992.45
2019-05-21T00:18:39.474Z,992.36
2019-05-21T00:19:39.562Z,992.36
2019-05-21T00:20:39.443Z,992.35
2019-05-21T00:21:39.423Z,992.42
2019-05-21T00:22:39.461Z,992.37
2019-05-21T00:23:39.393Z,992.39
2019-05-21T00:24:39.423Z,992.24
2019-05-21T00:25:39.402Z,992.15
2019-05-21T00:26:39.392Z,992.31
2019-05-21T00:27:39.356Z,992.21
2019-05-21T00:28:39.391Z,992.21
2019-05-21T00:29:39.354Z,992.30
2019-05-21T00:30:39.335Z,992.15
2019-05-21T00:31:39.337Z,992.16
2019-05-21T00:32:39.294Z,992.27
2019-05-21T00:33:39.335Z,992.27
2019-05-21T00:34:43.899Z,992.21
2019-05-21T00:35:40.275Z,992.27
2019-05-21T00:36:39.388Z,992.29
2019-05-21T00:37:39.274Z,992.33
2019-05-21T00:38:39.256Z,992.30
2019-05-21T00:39:39.245Z,992.33
2019-05-21T00:40:39.234Z,992.27
2019-05-21T00:41:39.196Z,992.29
2019-05-21T00:42:39.367Z,992.31
2019-05-21T00:43:39.186Z,992.27
2019-05-21T00:44:39.195Z,992.27
2019-05-21T00:45:39.189Z,992.29
2019-05-21T00:46:39.180Z,992.30
2019-05-21T00:47:39.169Z,992.24
2019-05-21T00:48:39.155Z,992.29
2019-05-21T00:49:39.136Z,992.38
2019-05-21T00:50:39.106Z,992.35
2019-05-21T00:51:39.106Z,992.35
2019-05-21T00:52:39.207Z,992.33
2019-05-21T00:53:39.173Z,992.31
2019-05-21T00:54:39.081Z,992.28
2019-05-21T00:55:39.067Z,992.29
2019-05-21T00:56:39.067Z,992.32
2019-05-21T00:57:39.040Z,992.34
2019-05-21T00:58:39.101Z,992.30
2019-05-21T00:59:39.028Z,992.30
2019-05-21T01:00:39.015Z,992.33
2019-05-21T01:01:38.977Z,992.26
2019-05-21T01:02:38.997Z,992.25
2019-05-21T01:03:38.989Z,992.26
2019-05-21T01:04:38.948Z,992.27
2019-05-21T01:05:38.958Z,992.18
2019-05-21T01:06:38.951Z,992.23
2019-05-21T01:07:38.940Z,992.29
2019-05-21T01:08:38.921Z,992.28
2019-05-21T01:09:39.009Z,992.31
2019-05-21T01:10:38.908Z,992.42
2019-05-21T01:11:38.899Z,992.42
2019-05-21T01:12:38.889Z,992.38
2019-05-21T01:13:38.985Z,992.46
2019-05-21T01:14:38.879Z,992.42
2019-05-21T01:15:38.850Z,992.47
2019-05-21T01:16:38.850Z,992.42
2019-05-21T01:17:38.831Z,992.36
2019-05-21T01:18:38.811Z,992.49
2019-05-21T01:19:38.812Z,992.40
2019-05-21T01:20:38.803Z,992.46
2019-05-21T01:21:38.761Z,992.45
2019-05-21T01:22:38.762Z,992.43
2019-05-21T01:23:38.845Z,992.39
2019-05-21T01:24:38.841Z,992.45
2019-05-21T01:25:38.753Z,992.40
2019-05-21T01:26:38.857Z,992.49
2019-05-21T01:27:38.713Z,992.42
2019-05-21T01:28:38.715Z,992.46
2019-05-21T01:29:38.700Z,992.52
2019-05-21T01:30:38.661Z,992.57
2019-05-21T01:31:38.671Z,992.60
2019-05-21T01:32:38.671Z,992.58
2019-05-21T01:33:38.651Z,992.60
2019-05-21T01:34:38.672Z,992.65
2019-05-21T01:35:38.640Z,992.60
2019-05-21T01:36:38.630Z,992.61
2019-05-21T01:37:38.591Z,992.71
2019-05-21T01:38:38.676Z,992.66
2019-05-21T01:39:38.591Z,992.71
2019-05-21T01:40:38.581Z,992.71
2019-05-21T01:41:38.552Z,992.66
2019-05-21T01:42:38.574Z,992.63
2019-05-21T01:43:38.522Z,992.67
2019-05-21T01:44:38.532Z,992.66
2019-05-21T01:45:38.617Z,992.67
2019-05-21T01:46:38.606Z,992.68
2019-05-21T01:47:38.483Z,992.67
2019-05-21T01:48:38.493Z,992.74
2019-05-21T01:49:38.482Z,992.62
2019-05-21T01:50:38.453Z,992.74
2019-05-21T01:51:38.511Z,992.79
2019-05-21T01:52:38.456Z,992.76
2019-05-21T01:53:38.442Z,992.71
2019-05-21T01:54:38.423Z,992.79
2019-05-21T01:55:38.406Z,992.80
2019-05-21T01:56:38.495Z,992.82
2019-05-21T01:57:38.408Z,992.85
2019-05-21T01:58:38.402Z,992.85
2019-05-21T01:59:38.377Z,992.87
2019-05-21T02:00:38.346Z,993.02
2019-05-21T02:01:38.367Z,993.00
2019-05-21T02:02:38.343Z,992.98
2019-05-21T02:03:38.317Z,993.01
2019-05-21T02:04:38.329Z,992.94
2019-05-21T02:05:38.313Z,993.02
2019-05-21T02:06:38.276Z,993.00
2019-05-21T02:07:38.394Z,992.93
2019-05-21T02:08:38.285Z,993.02
2019-05-21T02:09:38.246Z,992.98
2019-05-21T02:10:38.224Z,993.00
2019-05-21T02:11:38.355Z,992.97
2019-05-21T02:12:38.205Z,992.94
2019-05-21T02:13:38.225Z,992.98
2019-05-21T02:14:38.214Z,992.93
2019-05-21T02:15:38.232Z,992.96
2019-05-21T02:16:38.369Z,993.00
2019-05-21T02:17:38.184Z,992.96
2019-05-21T02:18:38.165Z,993.01
2019-05-21T02:19:38.156Z,992.93
2019-05-21T02:20:38.150Z,992.91
2019-05-21T02:21:38.218Z,993.00
2019-05-21T02:22:38.123Z,993.00
2019-05-21T02:23:38.099Z,992.99
2019-05-21T02:24:38.096Z,992.99
2019-05-21T02:25:38.086Z,993.00
2019-05-21T02:26:38.080Z,993.05
2019-05-21T02:27:38.148Z,993.03
2019-05-21T02:28:38.036Z,992.99
2019-05-21T02:29:38.060Z,993.04
2019-05-21T02:30:38.048Z,993.04
2019-05-21T02:31:38.018Z,993.00
2019-05-21T02:32:38.113Z,992.97
2019-05-21T02:33:38.026Z,993.02
2019-05-21T02:34:38.028Z,993.06
2019-05-21T02:35:52.930Z,992.99
2019-05-21T02:36:38.972Z,992.98
2019-05-21T02:37:37.939Z,992.99
2019-05-21T02:38:38.092Z,993.02
2019-05-21T02:39:37.939Z,993.00
2019-05-21T02:40:37.937Z,992.91
2019-05-21T02:41:37.923Z,992.97
2019-05-21T02:42:37.903Z,993.00
2019-05-21T02:43:37.889Z,993.00
2019-05-21T02:44:37.918Z,992.99
2019-05-21T02:45:37.869Z,992.95
2019-05-21T02:46:37.866Z,993.01
2019-05-21T02:47:37.863Z,993.02
2019-05-21T02:48:37.839Z,992.99
2019-05-21T02:49:37.923Z,993.02
2019-05-21T02:50:37.821Z,993.03
2019-05-21T02:51:37.869Z,993.09
2019-05-21T02:52:37.806Z,993.09
2019-05-21T02:53:37.778Z,993.06
2019-05-21T02:54:41.334Z,993.13
2019-05-21T02:55:37.758Z,993.10
2019-05-21T02:56:37.748Z,993.06
2019-05-21T02:57:37.710Z,993.09
2019-05-21T02:58:37.828Z,993.14
2019-05-21T02:59:37.701Z,993.12
2019-05-21T03:00:38.790Z,993.14
2019-05-21T03:01:37.703Z,993.15
2019-05-21T03:02:37.684Z,993.18
2019-05-21T03:03:37.770Z,993.23
2019-05-21T03:04:37.666Z,993.15
2019-05-21T03:05:37.634Z,993.18
2019-05-21T03:06:37.744Z,993.26
2019-05-21T03:07:37.601Z,993.24
2019-05-21T03:08:37.738Z,993.15
2019-05-21T03:09:37.601Z,993.25
2019-05-21T03:10:37.594Z,993.18
2019-05-21T03:11:37.580Z,993.13
2019-05-21T03:12:37.576Z,993.12
2019-05-21T03:13:37.563Z,993.08
2019-05-21T03:14:37.591Z,993.13
2019-05-21T03:15:37.513Z,993.21
2019-05-21T03:16:37.540Z,993.10
2019-05-21T03:17:37.519Z,993.14
2019-05-21T03:18:37.514Z,993.15
2019-05-21T03:19:37.521Z,993.09
2019-05-21T03:20:37.484Z,993.05
2019-05-21T03:21:37.471Z,993.10
2019-05-21T03:22:37.472Z,993.14
2019-05-21T03:23:37.492Z,993.21
2019-05-21T03:24:37.442Z,993.17
2019-05-21T03:25:37.427Z,993.21
2019-05-21T03:26:37.444Z,993.18
2019-05-21T03:27:37.412Z,993.19
2019-05-21T03:28:37.392Z,993.20
2019-05-21T03:29:37.362Z,993.13
2019-05-21T03:30:37.435Z,993.16
2019-05-21T03:31:37.363Z,993.28
2019-05-21T03:32:37.356Z,993.20
2019-05-21T03:33:37.364Z,993.21
2019-05-21T03:34:37.457Z,993.22
2019-05-21T03:35:37.449Z,993.29
2019-05-21T03:36:37.302Z,993.30
2019-05-21T03:37:37.293Z,993.30
2019-05-21T03:38:37.294Z,993.39
2019-05-21T03:39:37.294Z,993.39
2019-05-21T03:40:37.262Z,993.38
2019-05-21T03:41:37.324Z,993.35
2019-05-21T03:42:37.225Z,993.30
2019-05-21T03:43:37.333Z,993.37
2019-05-21T03:44:37.214Z,993.35
2019-05-21T03:45:37.205Z,993.40
2019-05-21T03:46:37.210Z,993.37
2019-05-21T03:47:37.263Z,993.36
2019-05-21T03:48:37.275Z,993.39
2019-05-21T03:49:37.165Z,993.43
2019-05-21T03:50:37.150Z,993.40
2019-05-21T03:51:37.148Z,993.37
2019-05-21T03:52:37.125Z,993.42
2019-05-21T03:53:37.218Z,993.34
2019-05-21T03:54:37.237Z,993.33
2019-05-21T03:55:37.098Z,993.34
2019-05-21T03:56:37.086Z,993.38
2019-05-21T03:57:37.063Z,993.43
2019-05-21T03:58:37.070Z,993.40
2019-05-21T03:59:37.051Z,993.42
2019-05-21T04:00:37.158Z,993.37
2019-05-21T04:01:37.087Z,993.39
2019-05-21T04:02:37.025Z,993.35
2019-05-21T04:03:37.007Z,993.40
2019-05-21T04:04:37.116Z,993.41
2019-05-21T04:05:36.992Z,993.43
2019-05-21T04:06:51.164Z,993.42
2019-05-21T04:07:37.975Z,993.45
2019-05-21T04:08:36.937Z,993.44
2019-05-21T04:09:37.047Z,993.50
2019-05-21T04:10:37.035Z,993.46
2019-05-21T04:11:37.046Z,993.48
2019-05-21T04:12:36.936Z,993.49
2019-05-21T04:13:36.897Z,993.53
2019-05-21T04:14:36.900Z,993.53
2019-05-21T04:15:36.857Z,993.56
2019-05-21T04:16:36.946Z,993.52
2019-05-21T04:17:36.861Z,993.56
2019-05-21T04:18:36.847Z,993.56
2019-05-21T04:19:36.887Z,993.57
2019-05-21T04:20:36.817Z,993.58
2019-05-21T04:21:36.821Z,993.54
2019-05-21T04:22:36.828Z,993.59
2019-05-21T04:23:36.788Z,993.60
2019-05-21T04:24:36.778Z,993.59
2019-05-21T04:25:36.853Z,993.60
2019-05-21T04:26:36.774Z,993.63
2019-05-21T04:27:36.833Z,993.62
2019-05-21T04:28:36.728Z,993.60
2019-05-21T04:29:36.703Z,993.66
2019-05-21T04:30:36.678Z,993.65
2019-05-21T04:31:36.695Z,993.65
2019-05-21T04:32:36.678Z,993.60
2019-05-21T04:33:36.671Z,993.57
2019-05-21T04:34:36.663Z,993.58
2019-05-21T04:35:36.640Z,993.62
2019-05-21T04:36:36.637Z,993.64
2019-05-21T04:37:36.609Z,993.60
2019-05-21T04:38:36.608Z,993.58
2019-05-21T04:39:36.613Z,993.59
2019-05-21T04:40:36.579Z,993.58
2019-05-21T04:41:36.570Z,993.69
2019-05-21T04:42:36.560Z,993.67
2019-05-21T04:43:36.558Z,993.70
2019-05-21T04:44:36.550Z,993.69
2019-05-21T04:45:36.548Z,993.69
2019-05-21T04:46:36.513Z,993.72
2019-05-21T04:47:36.501Z,993.78
2019-05-21T04:48:36.492Z,993.74
2019-05-21T04:49:36.639Z,993.75
2019-05-21T04:50:36.479Z,993.75
2019-05-21T04:51:36.462Z,993.77
2019-05-21T04:52:36.450Z,993.80
2019-05-21T04:53:36.437Z,993.76
2019-05-21T04:54:36.430Z,993.79
2019-05-21T04:55:36.458Z,993.83
2019-05-21T04:56:36.410Z,993.80
2019-05-21T04:57:37.456Z,993.79
2019-05-21T04:58:36.492Z,993.79
2019-05-21T04:59:37.583Z,993.75
2019-05-21T05:00:36.645Z,993.73
2019-05-21T05:01:36.471Z,993.86
2019-05-21T05:02:36.355Z,993.72
2019-05-21T05:03:36.334Z,993.86
2019-05-21T05:04:36.334Z,993.86
2019-05-21T05:05:36.424Z,993.79
2019-05-21T05:06:36.292Z,993.74
2019-05-21T05:07:36.292Z,993.77
2019-05-21T05:08:36.291Z,993.89
2019-05-21T05:09:36.262Z,993.83
2019-05-21T05:10:36.256Z,993.83
2019-05-21T05:11:36.242Z,993.86
2019-05-21T05:12:36.243Z,993.92
2019-05-21T05:13:36.242Z,993.89
2019-05-21T05:14:36.234Z,993.90
2019-05-21T05:15:36.224Z,993.95
2019-05-21T05:16:36.302Z,993.92
2019-05-21T05:17:36.298Z,993.92
2019-05-21T05:18:36.163Z,993.95
2019-05-21T05:19:36.231Z,993.95
2019-05-21T05:20:36.212Z,993.93
2019-05-21T05:21:36.152Z,993.98
2019-05-21T05:22:36.145Z,993.97
2019-05-21T05:23:36.233Z,993.94
2019-05-21T05:24:37.240Z,994.04
2019-05-21T05:25:36.107Z,994.03
2019-05-21T05:26:36.105Z,993.94
2019-05-21T05:27:36.202Z,993.99
2019-05-21T05:28:36.073Z,994.02
2019-05-21T05:29:36.057Z,993.98
2019-05-21T05:30:36.073Z,993.98
2019-05-21T05:31:36.033Z,993.84
2019-05-21T05:32:36.043Z,993.89
2019-05-21T05:33:35.998Z,993.91
2019-05-21T05:34:36.102Z,993.85
2019-05-21T05:35:36.039Z,993.87
2019-05-21T05:36:35.995Z,993.81
2019-05-21T05:37:44.018Z,993.94
2019-05-21T05:38:37.084Z,993.96
2019-05-21T05:39:35.945Z,993.99
2019-05-21T05:40:35.945Z,993.98
2019-05-21T05:41:35.914Z,994.01
2019-05-21T05:42:35.925Z,994.05
2019-05-21T05:43:35.910Z,994.00
2019-05-21T05:44:35.895Z,993.95
2019-05-21T05:45:35.895Z,994.00
2019-05-21T05:46:35.884Z,994.02
2019-05-21T05:47:36.025Z,993.98
2019-05-21T05:48:35.947Z,993.98
2019-05-21T05:49:35.854Z,994.04
2019-05-21T05:50:35.852Z,994.06
2019-05-21T05:51:35.806Z,994.03
2019-05-21T05:52:35.817Z,994.05
2019-05-21T05:53:35.796Z,994.10
2019-05-21T05:54:35.806Z,994.10
2019-05-21T05:55:35.784Z,994.14
2019-05-21T05:56:35.778Z,994.08
2019-05-21T05:57:35.761Z,994.10
2019-05-21T05:58:35.747Z,994.08
2019-05-21T05:59:35.766Z,994.11
2019-05-21T06:00:35.728Z,994.11
2019-05-21T06:01:35.707Z,994.10
2019-05-21T06:02:35.707Z,994.06
2019-05-21T06:03:35.849Z,994.08
2019-05-21T06:04:35.687Z,994.11
2019-05-21T06:05:35.676Z,994.19
2019-05-21T06:06:35.672Z,994.16
2019-05-21T06:07:35.629Z,994.15
2019-05-21T06:08:35.647Z,994.20
2019-05-21T06:09:35.740Z,994.17
2019-05-21T06:10:39.669Z,994.26
2019-05-21T06:11:35.596Z,994.19
2019-05-21T06:12:35.598Z,994.25
2019-05-21T06:13:35.566Z,994.25
2019-05-21T06:14:35.580Z,994.30
2019-05-21T06:15:35.668Z,994.28
2019-05-21T06:16:35.564Z,994.24
2019-05-21T06:17:35.520Z,994.29
2019-05-21T06:18:35.838Z,994.22
2019-05-21T06:19:35.529Z,994.24
2019-05-21T06:20:35.522Z,994.16
2019-05-21T06:21:35.489Z,994.14
2019-05-21T06:22:35.490Z,994.15
2019-05-21T06:23:35.465Z,994.15
2019-05-21T06:24:35.579Z,994.10
2019-05-21T06:25:35.543Z,994.23
2019-05-21T06:26:35.449Z,994.17
2019-05-21T06:27:35.423Z,994.23
2019-05-21T06:28:35.422Z,994.22
2019-05-21T06:29:39.353Z,994.29
2019-05-21T06:30:35.402Z,994.26
2019-05-21T06:31:35.369Z,994.26
2019-05-21T06:32:35.370Z,994.25
2019-05-21T06:33:35.369Z,994.29
2019-05-21T06:34:35.341Z,994.25
2019-05-21T06:35:35.383Z,994.31
2019-05-21T06:36:35.321Z,994.27
2019-05-21T06:37:35.310Z,994.29
2019-05-21T06:38:35.324Z,994.30
2019-05-21T06:39:35.280Z,994.24
2019-05-21T06:40:38.380Z,994.26
2019-05-21T06:41:35.270Z,994.16
2019-05-21T06:42:35.241Z,994.16
2019-05-21T06:43:35.254Z,994.21
2019-05-21T06:44:35.254Z,994.18
2019-05-21T06:45:35.222Z,994.19
2019-05-21T06:46:35.331Z,994.22
2019-05-21T06:47:35.203Z,994.28
2019-05-21T06:48:35.224Z,994.27
2019-05-21T06:49:35.181Z,994.16
2019-05-21T06:50:37.379Z,994.34
2019-05-21T06:51:35.167Z,994.33
2019-05-21T06:52:35.163Z,994.24
2019-05-21T06:53:35.168Z,994.29
2019-05-21T06:54:35.123Z,994.33
2019-05-21T06:55:35.113Z,994.32
2019-05-21T06:56:35.219Z,994.38
2019-05-21T06:57:35.104Z,994.41
2019-05-21T06:58:35.082Z,994.46
2019-05-21T06:59:35.097Z,994.47
2019-05-21T07:00:35.067Z,994.46
2019-05-21T07:01:35.044Z,994.44
2019-05-21T07:02:35.112Z,994.45
2019-05-21T07:03:35.026Z,994.45
2019-05-21T07:04:35.032Z,994.47
2019-05-21T07:05:35.015Z,994.42
2019-05-21T07:06:35.016Z,994.52
2019-05-21T07:07:35.106Z,994.53
2019-05-21T07:08:35.467Z,994.49
2019-05-21T07:09:34.953Z,994.55
2019-05-21T07:10:34.982Z,994.61
2019-05-21T07:11:35.034Z,994.62
2019-05-21T07:12:35.057Z,994.61
2019-05-21T07:13:34.941Z,994.59
2019-05-21T07:14:34.894Z,994.63
2019-05-21T07:15:34.916Z,994.61
2019-05-21T07:16:34.875Z,994.73
2019-05-21T07:17:34.916Z,994.68
2019-05-21T07:18:34.966Z,994.70
2019-05-21T07:19:34.853Z,994.73
2019-05-21T07:20:34.866Z,994.78
2019-05-21T07:21:34.825Z,994.83
2019-05-21T07:22:34.874Z,994.78
2019-05-21T07:23:34.826Z,994.83
2019-05-21T07:24:34.785Z,994.82
2019-05-21T07:25:34.775Z,994.83
2019-05-21T07:26:34.788Z,994.87
2019-05-21T07:27:34.831Z,994.86
2019-05-21T07:28:34.862Z,994.79
2019-05-21T07:29:34.729Z,994.86
2019-05-21T07:30:34.746Z,994.84
2019-05-21T07:31:34.734Z,994.90
2019-05-21T07:32:34.758Z,994.97
2019-05-21T07:33:34.825Z,994.84
2019-05-21T07:34:34.699Z,994.80
2019-05-21T07:35:34.695Z,994.91
2019-05-21T07:36:34.703Z,994.91
2019-05-21T07:37:34.647Z,994.98
2019-05-21T07:38:50.243Z,994.92
2019-05-21T07:39:35.751Z,994.96
2019-05-21T07:40:34.768Z,994.96
2019-05-21T07:41:34.618Z,995.07
2019-05-21T07:42:34.618Z,995.13
2019-05-21T07:43:34.660Z,995.15
2019-05-21T07:44:34.599Z,995.18
2019-05-21T07:45:34.577Z,995.20
2019-05-21T07:46:34.581Z,995.17
2019-05-21T07:47:34.539Z,995.20
2019-05-21T07:48:34.550Z,995.19
2019-05-21T07:49:34.718Z,995.17
2019-05-21T07:50:34.521Z,995.21
2019-05-21T07:51:34.504Z,995.26
2019-05-21T07:52:34.518Z,995.26
2019-05-21T07:53:34.485Z,995.14
2019-05-21T07:54:34.621Z,995.22
2019-05-21T07:55:34.938Z,995.27
2019-05-21T07:56:34.450Z,995.34
2019-05-21T07:57:34.568Z,995.22
2019-05-21T07:58:34.439Z,995.23
2019-05-21T07:59:34.418Z,995.22
2019-05-21T08:00:34.513Z,995.19
2019-05-21T08:01:34.390Z,995.24
2019-05-21T08:02:34.420Z,995.21
2019-05-21T08:03:34.379Z,995.27
2019-05-21T08:04:34.493Z,995.26
2019-05-21T08:05:34.333Z,995.24
2019-05-21T08:06:34.358Z,995.32
2019-05-21T08:07:34.320Z,995.37
2019-05-21T08:08:34.335Z,995.37
2019-05-21T08:09:34.301Z,995.33
2019-05-21T08:10:34.391Z,995.40
2019-05-21T08:11:34.272Z,995.34
2019-05-21T08:12:39.665Z,995.35
2019-05-21T08:13:35.252Z,995.37
2019-05-21T08:14:34.262Z,995.34
2019-05-21T08:15:34.252Z,995.26
2019-05-21T08:16:34.366Z,995.29
2019-05-21T08:17:34.237Z,995.23
2019-05-21T08:18:34.205Z,995.26
2019-05-21T08:19:34.203Z,995.30
2019-05-21T08:20:34.197Z,995.22
2019-05-21T08:21:34.185Z,995.27
2019-05-21T08:22:34.185Z,995.26
2019-05-21T08:23:34.143Z,995.29
2019-05-21T08:24:34.152Z,995.23
2019-05-21T08:25:34.147Z,995.30
2019-05-21T08:26:34.247Z,995.25
2019-05-21T08:27:34.093Z,995.30
2019-05-21T08:28:34.114Z,995.38
2019-05-21T08:29:34.094Z,995.40
2019-05-21T08:30:34.084Z,995.41
2019-05-21T08:31:34.088Z,995.42
2019-05-21T08:32:34.068Z,995.38
2019-05-21T08:33:34.057Z,995.48
2019-05-21T08:34:34.034Z,995.50
2019-05-21T08:35:34.013Z,995.47
2019-05-21T08:36:34.024Z,995.42
2019-05-21T08:37:34.093Z,995.55
2019-05-21T08:38:34.007Z,995.52
2019-05-21T08:39:33.996Z,995.57
2019-05-21T08:40:34.027Z,995.60
2019-05-21T08:41:33.946Z,995.52
2019-05-21T08:42:34.088Z,995.59
2019-05-21T08:43:33.925Z,995.60
2019-05-21T08:44:33.940Z,995.59
2019-05-21T08:45:33.914Z,995.60
2019-05-21T08:46:33.885Z,995.58
2019-05-21T08:47:33.907Z,995.66
2019-05-21T08:48:33.987Z,995.68
2019-05-21T08:49:33.911Z,995.68
2019-05-21T08:50:33.868Z,995.62
2019-05-21T08:51:33.839Z,995.60
2019-05-21T08:52:33.957Z,995.69
2019-05-21T08:53:33.887Z,995.68
2019-05-21T08:54:33.831Z,995.71
2019-05-21T08:55:33.790Z,995.71
2019-05-21T08:56:33.796Z,995.64
2019-05-21T08:57:33.908Z,995.66
2019-05-21T08:58:33.780Z,995.65
2019-05-21T08:59:33.770Z,995.60
2019-05-21T09:00:33.751Z,995.66
2019-05-21T09:01:33.827Z,995.67
2019-05-21T09:02:33.848Z,995.72
2019-05-21T09:03:33.697Z,995.69
2019-05-21T09:04:45.889Z,995.66
2019-05-21T09:05:34.698Z,995.68
2019-05-21T09:06:33.710Z,995.67
2019-05-21T09:07:33.675Z,995.71
2019-05-21T09:08:33.778Z,995.84
2019-05-21T09:09:49.299Z,995.78
2019-05-21T09:10:34.648Z,995.86
2019-05-21T09:11:33.647Z,995.85
2019-05-21T09:12:33.688Z,995.86
2019-05-21T09:13:33.619Z,995.93
2019-05-21T09:14:33.594Z,995.96
2019-05-21T09:15:33.581Z,995.97
2019-05-21T09:16:33.580Z,995.97
2019-05-21T09:17:33.570Z,995.98
2019-05-21T09:18:33.643Z,996.05
2019-05-21T09:19:36.365Z,995.99
2019-05-21T09:20:33.539Z,996.02
2019-05-21T09:21:33.516Z,996.07
2019-05-21T09:22:33.489Z,995.98
2019-05-21T09:23:33.502Z,996.05
2019-05-21T09:24:33.601Z,996.02
2019-05-21T09:25:33.484Z,995.99
2019-05-21T09:26:33.482Z,996.05
2019-05-21T09:27:33.430Z,996.02
2019-05-21T09:28:33.521Z,996.05
2019-05-21T09:29:33.445Z,995.96
2019-05-21T09:30:33.423Z,996.04
2019-05-21T09:31:33.423Z,996.04
2019-05-21T09:32:33.414Z,996.05
2019-05-21T09:33:33.361Z,996.05
2019-05-21T09:34:47.469Z,996.12
2019-05-21T09:35:34.371Z,996.11
2019-05-21T09:36:33.463Z,996.12
2019-05-21T09:37:33.321Z,996.10
2019-05-21T09:38:33.332Z,996.22
2019-05-21T09:39:33.410Z,996.25
2019-05-21T09:40:33.332Z,996.18
2019-05-21T09:41:33.342Z,996.31
2019-05-21T09:42:33.302Z,996.22
2019-05-21T09:43:33.392Z,996.28
2019-05-21T09:44:33.253Z,996.29
2019-05-21T09:45:33.371Z,996.38
2019-05-21T09:46:33.251Z,996.35
2019-05-21T09:47:33.240Z,996.32
2019-05-21T09:48:33.241Z,996.37
2019-05-21T09:49:33.223Z,996.44
2019-05-21T09:50:33.343Z,996.52
2019-05-21T09:51:33.185Z,996.50
2019-05-21T09:52:33.203Z,996.49
2019-05-21T09:53:33.151Z,996.48
2019-05-21T09:54:33.164Z,996.51
2019-05-21T09:55:33.871Z,996.49
2019-05-21T09:56:33.166Z,996.50
2019-05-21T09:57:33.127Z,996.55
2019-05-21T09:58:33.194Z,996.50
2019-05-21T09:59:33.136Z,996.47
2019-05-21T10:00:33.094Z,996.47
2019-05-21T10:01:33.185Z,996.50
2019-05-21T10:02:33.074Z,996.46
2019-05-21T10:03:33.045Z,996.50
2019-05-21T10:04:33.075Z,996.52
2019-05-21T10:05:33.025Z,996.58
2019-05-21T10:06:33.149Z,996.55
2019-05-21T10:07:39.999Z,996.56
2019-05-21T10:08:37.136Z,996.60
2019-05-21T10:09:33.006Z,996.57
2019-05-21T10:10:32.995Z,996.58
2019-05-21T10:11:32.975Z,996.63
2019-05-21T10:12:33.045Z,996.60
2019-05-21T10:13:32.961Z,996.63
2019-05-21T10:14:34.298Z,996.63
2019-05-21T10:15:32.949Z,996.66
2019-05-21T10:16:32.926Z,996.65
2019-05-21T10:17:33.016Z,996.72
2019-05-21T10:18:32.909Z,996.69
2019-05-21T10:19:32.882Z,996.75
2019-05-21T10:20:32.870Z,996.77
2019-05-21T10:21:32.893Z,996.74
2019-05-21T10:22:32.959Z,996.77
2019-05-21T10:23:32.849Z,996.78
2019-05-21T10:24:32.839Z,996.77
2019-05-21T10:25:32.838Z,996.77
2019-05-21T10:26:32.788Z,996.75
2019-05-21T10:27:32.798Z,996.80
2019-05-21T10:28:32.825Z,996.77
2019-05-21T10:29:32.790Z,996.73
2019-05-21T10:30:32.769Z,996.72
2019-05-21T10:31:32.737Z,996.62
2019-05-21T10:32:32.877Z,996.70
2019-05-21T10:33:32.708Z,996.76
2019-05-21T10:34:32.726Z,996.67
2019-05-21T10:35:32.717Z,996.71
2019-05-21T10:36:32.707Z,996.70
2019-05-21T10:37:32.669Z,996.69
2019-05-21T10:38:32.801Z,996.75
2019-05-21T10:39:32.670Z,996.81
2019-05-21T10:40:32.759Z,996.70
2019-05-21T10:41:32.629Z,996.75
2019-05-21T10:42:32.644Z,996.68
2019-05-21T10:43:32.727Z,996.70
2019-05-21T10:44:32.599Z,996.78
2019-05-21T10:45:32.608Z,996.68
2019-05-21T10:46:32.597Z,996.71
2019-05-21T10:47:32.603Z,996.80
2019-05-21T10:48:32.583Z,996.79
2019-05-21T10:49:32.680Z,996.82
2019-05-21T10:50:32.552Z,996.83
2019-05-21T10:51:32.573Z,996.82
2019-05-21T10:52:32.510Z,996.79
2019-05-21T10:53:32.623Z,996.87
2019-05-21T10:54:32.523Z,996.83
2019-05-21T10:55:32.543Z,996.88
2019-05-21T10:56:46.748Z,996.87
2019-05-21T10:57:33.503Z,996.93
2019-05-21T10:58:32.562Z,996.93
2019-05-21T10:59:32.462Z,996.89
2019-05-21T11:00:32.530Z,996.98
2019-05-21T11:01:32.411Z,996.98
2019-05-21T11:02:32.424Z,997.00
2019-05-21T11:03:32.391Z,996.98
2019-05-21T11:04:32.475Z,996.97
2019-05-21T11:05:32.474Z,996.99
2019-05-21T11:06:32.380Z,997.02
2019-05-21T11:07:32.362Z,996.98
2019-05-21T11:08:32.351Z,997.06
2019-05-21T11:09:32.372Z,997.07
2019-05-21T11:10:32.416Z,997.08
2019-05-21T11:11:32.324Z,997.06
2019-05-21T11:12:32.312Z,997.08
2019-05-21T11:13:32.285Z,997.10
2019-05-21T11:14:32.373Z,997.16
2019-05-21T11:15:32.514Z,997.11
2019-05-21T11:16:32.263Z,997.13
2019-05-21T11:17:46.963Z,997.17
2019-05-21T11:18:33.266Z,997.21
2019-05-21T11:19:32.223Z,997.19
2019-05-21T11:20:32.206Z,997.21
2019-05-21T11:21:32.214Z,997.27
2019-05-21T11:22:32.208Z,997.26
2019-05-21T11:23:32.198Z,997.23
2019-05-21T11:24:32.253Z,997.33
2019-05-21T11:25:32.181Z,997.28
2019-05-21T11:26:32.164Z,997.39
2019-05-21T11:27:32.143Z,997.44
2019-05-21T11:28:32.139Z,997.42
2019-05-21T11:29:32.107Z,997.45
2019-05-21T11:30:32.173Z,997.42
2019-05-21T11:31:32.104Z,997.47
2019-05-21T11:32:32.173Z,997.44
2019-05-21T11:33:32.085Z,997.52
2019-05-21T11:34:32.054Z,997.50
2019-05-21T11:35:35.574Z,997.41
2019-05-21T11:36:32.025Z,997.46
2019-05-21T11:37:32.015Z,997.37
2019-05-21T11:38:40.122Z,997.46
2019-05-21T11:39:32.998Z,997.46
2019-05-21T11:40:31.978Z,997.44
2019-05-21T11:41:31.985Z,997.57
2019-05-21T11:42:31.966Z,997.53
2019-05-21T11:43:31.946Z,997.52
2019-05-21T11:44:32.067Z,997.48
2019-05-21T11:45:33.046Z,997.52
2019-05-21T11:46:31.917Z,997.59
2019-05-21T11:47:31.926Z,997.51
2019-05-21T11:48:31.935Z,997.57
2019-05-21T11:49:31.987Z,997.57
2019-05-21T11:50:31.877Z,997.56
2019-05-21T11:51:31.860Z,997.57
2019-05-21T11:52:31.849Z,997.55
2019-05-21T11:53:32.259Z,997.59
2019-05-21T11:54:31.878Z,997.56
2019-05-21T11:55:31.848Z,997.54
2019-05-21T11:56:31.827Z,997.60
2019-05-21T11:57:31.789Z,997.55
2019-05-21T11:58:31.802Z,997.57
2019-05-21T11:59:31.917Z,997.56
2019-05-21T12:00:31.792Z,997.54
2019-05-21T12:01:31.759Z,997.55
2019-05-21T12:02:31.749Z,997.58
2019-05-21T12:03:31.738Z,997.59
2019-05-21T12:04:31.886Z,997.59
2019-05-21T12:05:31.737Z,997.60
2019-05-21T12:06:31.861Z,997.69
2019-05-21T12:07:31.688Z,997.70
2019-05-21T12:08:31.702Z,997.65
2019-05-21T12:09:31.688Z,997.68
2019-05-21T12:10:31.789Z,997.68
2019-05-21T12:11:31.639Z,997.80
2019-05-21T12:12:31.662Z,997.73
2019-05-21T12:13:31.630Z,997.80
2019-05-21T12:14:31.739Z,997.82
2019-05-21T12:15:31.632Z,997.85
2019-05-21T12:16:31.611Z,997.75
2019-05-21T12:17:31.583Z,997.79
2019-05-21T12:18:31.589Z,997.83
2019-05-21T12:19:31.559Z,997.80
2019-05-21T12:20:36.793Z,997.77
2019-05-21T12:21:32.531Z,997.74
2019-05-21T12:22:31.545Z,997.78
2019-05-21T12:23:31.640Z,997.86
2019-05-21T12:24:31.530Z,997.75
2019-05-21T12:25:31.490Z,997.79
2019-05-21T12:26:31.553Z,997.82
2019-05-21T12:27:31.472Z,997.87
2019-05-21T12:28:31.481Z,997.94